sensor_id;sensor_type;location;lat;lon;timestamp;P1;durP1;ratioP1;P2;durP2;ratioP2
69087;SDS011;56190;43.562;5.036;2022-10-26T11:58:00;13.25;;;4.30;;
69087;SDS011;56190;43.562;5.036;2022-10-26T12:00:27;12.40;;;5.07;;
69087;SDS011;56190;43.562;5.036;2022-10-26T12:07:56;11.15;;;4.63;;
69087;SDS011;56190;43.562;5.036;2022-10-26T12:10:32;11.65;;;4.65;;
69087;SDS011;56190;43.562;5.036;2022-10-26T12:18:15;11.52;;;4.80;;
69087;SDS011;56190;43.562;5.036;2022-10-26T12:23:10;14.40;;;4.68;;
69087;SDS011;56190;43.562;5.036;2022-10-26T12:25:35;12.48;;;4.85;;
69087;SDS011;56190;43.562;5.036;2022-10-26T12:28:01;12.43;;;4.45;;
69087;SDS011;56190;43.562;5.036;2022-10-26T12:30:27;12.10;;;5.85;;
69087;SDS011;56190;43.562;5.036;2022-10-26T12:32:56;12.15;;;4.80;;
69087;SDS011;56190;43.562;5.036;2022-10-26T12:35:38;14.27;;;5.50;;
69087;SDS011;56190;43.562;5.036;2022-10-26T12:40:48;15.88;;;5.32;;
69087;SDS011;56190;43.562;5.036;2022-10-26T12:45:39;13.18;;;4.55;;
69087;SDS011;56190;43.562;5.036;2022-10-26T12:48:10;11.63;;;4.85;;
69087;SDS011;56190;43.562;5.036;2022-10-26T12:50:44;12.63;;;4.38;;
69087;SDS011;56190;43.562;5.036;2022-10-26T12:53:10;12.50;;;5.10;;
69087;SDS011;56190;43.562;5.036;2022-10-26T13:00:44;11.75;;;5.03;;
69087;SDS011;56190;43.562;5.036;2022-10-26T13:08:20;11.65;;;4.90;;
69087;SDS011;56190;43.562;5.036;2022-10-26T13:10:59;15.30;;;5.40;;
69087;SDS011;56190;43.562;5.036;2022-10-26T13:13:25;13.80;;;5.22;;
69087;SDS011;56190;43.562;5.036;2022-10-26T13:15:51;15.80;;;5.25;;
69087;SDS011;56190;43.562;5.036;2022-10-26T13:18:17;16.35;;;4.80;;
69087;SDS011;56190;43.562;5.036;2022-10-26T13:21:17;13.38;;;4.72;;
69087;SDS011;56190;43.562;5.036;2022-10-26T13:23:39;18.48;;;5.20;;
69087;SDS011;56190;43.562;5.036;2022-10-26T13:26:12;16.95;;;5.05;;
69087;SDS011;56190;43.562;5.036;2022-10-26T13:31:11;19.50;;;6.35;;
69087;SDS011;56190;43.562;5.036;2022-10-26T13:33:41;14.15;;;5.60;;
69087;SDS011;56190;43.562;5.036;2022-10-26T13:38:56;10.80;;;4.45;;
69087;SDS011;56190;43.562;5.036;2022-10-26T13:41:32;13.18;;;5.28;;
69087;SDS011;56190;43.562;5.036;2022-10-26T13:43:58;12.30;;;4.95;;
69087;SDS011;56190;43.562;5.036;2022-10-26T13:46:27;15.15;;;5.28;;
69087;SDS011;56190;43.562;5.036;2022-10-26T13:48:53;14.27;;;5.28;;
69087;SDS011;56190;43.562;5.036;2022-10-26T13:51:23;14.93;;;4.82;;
69087;SDS011;56190;43.562;5.036;2022-10-26T13:54:33;12.13;;;3.45;;
69087;SDS011;56190;43.562;5.036;2022-10-26T13:56:53;14.30;;;5.40;;
69087;SDS011;56190;43.562;5.036;2022-10-26T13:59:21;11.70;;;5.53;;
69087;SDS011;56190;43.562;5.036;2022-10-26T14:01:50;12.18;;;4.72;;
69087;SDS011;56190;43.562;5.036;2022-10-26T14:04:29;10.98;;;4.65;;
69087;SDS011;56190;43.562;5.036;2022-10-26T14:06:54;12.40;;;4.95;;
69087;SDS011;56190;43.562;5.036;2022-10-26T14:09:19;10.52;;;5.25;;
69087;SDS011;56190;43.562;5.036;2022-10-26T14:11:47;11.63;;;5.43;;
69087;SDS011;56190;43.562;5.036;2022-10-26T14:14:13;15.18;;;5.15;;
69087;SDS011;56190;43.562;5.036;2022-10-26T14:16:41;14.70;;;5.53;;
69087;SDS011;56190;43.562;5.036;2022-10-26T14:19:21;15.10;;;5.30;;
69087;SDS011;56190;43.562;5.036;2022-10-26T14:21:49;12.93;;;4.82;;
69087;SDS011;56190;43.562;5.036;2022-10-26T14:24:31;12.93;;;4.97;;
69087;SDS011;56190;43.562;5.036;2022-10-26T14:26:56;13.13;;;5.03;;
69087;SDS011;56190;43.562;5.036;2022-10-26T14:29:23;13.35;;;5.20;;
69087;SDS011;56190;43.562;5.036;2022-10-26T14:31:48;12.50;;;5.05;;
69087;SDS011;56190;43.562;5.036;2022-10-26T14:34:14;21.17;;;5.93;;
69087;SDS011;56190;43.562;5.036;2022-10-26T14:41:42;11.10;;;5.07;;
69087;SDS011;56190;43.562;5.036;2022-10-26T14:44:17;15.68;;;5.72;;
69087;SDS011;56190;43.562;5.036;2022-10-26T14:46:43;19.77;;;5.30;;
69087;SDS011;56190;43.562;5.036;2022-10-26T14:49:13;13.32;;;5.60;;
69087;SDS011;56190;43.562;5.036;2022-10-26T14:51:40;17.38;;;6.13;;
69087;SDS011;56190;43.562;5.036;2022-10-26T14:54:16;13.27;;;5.43;;
69087;SDS011;56190;43.562;5.036;2022-10-26T14:56:43;14.05;;;5.60;;
69087;SDS011;56190;43.562;5.036;2022-10-26T14:59:18;12.85;;;5.47;;
69087;SDS011;56190;43.562;5.036;2022-10-26T15:01:48;16.35;;;6.38;;
69087;SDS011;56190;43.562;5.036;2022-10-26T15:04:28;14.40;;;6.13;;
69087;SDS011;56190;43.562;5.036;2022-10-26T15:07:15;14.55;;;5.63;;
69087;SDS011;56190;43.562;5.036;2022-10-26T15:09:46;18.38;;;6.18;;
69087;SDS011;56190;43.562;5.036;2022-10-26T15:14:46;18.88;;;6.43;;
69087;SDS011;56190;43.562;5.036;2022-10-26T15:17:13;21.63;;;5.85;;
69087;SDS011;56190;43.562;5.036;2022-10-26T15:19:43;18.95;;;6.15;;
69087;SDS011;56190;43.562;5.036;2022-10-26T15:22:19;16.13;;;6.03;;
69087;SDS011;56190;43.562;5.036;2022-10-26T15:24:48;14.85;;;5.80;;
69087;SDS011;56190;43.562;5.036;2022-10-26T15:27:14;16.30;;;5.55;;
69087;SDS011;56190;43.562;5.036;2022-10-26T15:29:43;15.20;;;6.20;;
69087;SDS011;56190;43.562;5.036;2022-10-26T15:32:29;15.73;;;5.60;;
69087;SDS011;56190;43.562;5.036;2022-10-26T15:37:35;14.05;;;6.13;;
69087;SDS011;56190;43.562;5.036;2022-10-26T15:40:00;19.17;;;6.55;;
69087;SDS011;56190;43.562;5.036;2022-10-26T15:42:25;17.27;;;6.10;;
69087;SDS011;56190;43.562;5.036;2022-10-26T15:44:51;14.88;;;6.00;;
69087;SDS011;56190;43.562;5.036;2022-10-26T15:47:17;20.45;;;6.35;;
69087;SDS011;56190;43.562;5.036;2022-10-26T15:49:43;25.65;;;6.50;;
69087;SDS011;56190;43.562;5.036;2022-10-26T15:52:08;20.45;;;6.72;;
69087;SDS011;56190;43.562;5.036;2022-10-26T15:54:33;17.05;;;5.97;;
69087;SDS011;56190;43.562;5.036;2022-10-26T15:56:59;20.63;;;6.13;;
69087;SDS011;56190;43.562;5.036;2022-10-26T15:59:25;23.05;;;6.03;;
69087;SDS011;56190;43.562;5.036;2022-10-26T16:01:51;19.15;;;6.20;;
69087;SDS011;56190;43.562;5.036;2022-10-26T16:04:16;22.98;;;6.55;;
69087;SDS011;56190;43.562;5.036;2022-10-26T16:06:43;20.17;;;6.95;;
69087;SDS011;56190;43.562;5.036;2022-10-26T16:09:12;18.40;;;6.88;;
69087;SDS011;56190;43.562;5.036;2022-10-26T16:11:37;17.77;;;6.20;;
69087;SDS011;56190;43.562;5.036;2022-10-26T16:14:03;15.48;;;6.43;;
69087;SDS011;56190;43.562;5.036;2022-10-26T16:16:28;16.40;;;6.13;;
69087;SDS011;56190;43.562;5.036;2022-10-26T16:18:54;20.45;;;6.50;;
69087;SDS011;56190;43.562;5.036;2022-10-26T16:21:20;24.92;;;6.97;;
69087;SDS011;56190;43.562;5.036;2022-10-26T16:23:46;16.73;;;5.93;;
69087;SDS011;56190;43.562;5.036;2022-10-26T16:26:11;23.58;;;7.15;;
69087;SDS011;56190;43.562;5.036;2022-10-26T16:28:37;23.48;;;7.28;;
69087;SDS011;56190;43.562;5.036;2022-10-26T16:31:03;22.35;;;6.47;;
69087;SDS011;56190;43.562;5.036;2022-10-26T16:33:28;21.10;;;6.80;;
69087;SDS011;56190;43.562;5.036;2022-10-26T16:35:57;18.95;;;6.47;;
69087;SDS011;56190;43.562;5.036;2022-10-26T16:38:22;20.95;;;6.55;;
69087;SDS011;56190;43.562;5.036;2022-10-26T16:40:48;18.10;;;6.85;;
69087;SDS011;56190;43.562;5.036;2022-10-26T16:43:14;19.83;;;7.03;;
69087;SDS011;56190;43.562;5.036;2022-10-26T16:45:39;18.95;;;7.22;;
69087;SDS011;56190;43.562;5.036;2022-10-26T16:48:05;17.48;;;6.70;;
69087;SDS011;56190;43.562;5.036;2022-10-26T16:53:03;23.75;;;6.75;;
69087;SDS011;56190;43.562;5.036;2022-10-26T16:55:28;19.80;;;7.32;;
69087;SDS011;56190;43.562;5.036;2022-10-26T16:57:53;20.05;;;6.80;;
69087;SDS011;56190;43.562;5.036;2022-10-26T17:00:23;21.10;;;6.93;;
69087;SDS011;56190;43.562;5.036;2022-10-26T17:02:49;22.35;;;7.03;;
69087;SDS011;56190;43.562;5.036;2022-10-26T17:05:18;20.60;;;8.35;;
69087;SDS011;56190;43.562;5.036;2022-10-26T17:07:43;18.20;;;7.10;;
69087;SDS011;56190;43.562;5.036;2022-10-26T17:10:11;19.92;;;6.88;;
69087;SDS011;56190;43.562;5.036;2022-10-26T17:12:37;22.88;;;7.30;;
69087;SDS011;56190;43.562;5.036;2022-10-26T17:15:02;20.00;;;6.93;;
69087;SDS011;56190;43.562;5.036;2022-10-26T17:17:28;23.17;;;7.47;;
69087;SDS011;56190;43.562;5.036;2022-10-26T17:19:53;21.88;;;7.70;;
69087;SDS011;56190;43.562;5.036;2022-10-26T17:22:18;22.50;;;7.45;;
69087;SDS011;56190;43.562;5.036;2022-10-26T17:24:45;22.30;;;7.05;;
69087;SDS011;56190;43.562;5.036;2022-10-26T17:27:12;16.75;;;6.82;;
69087;SDS011;56190;43.562;5.036;2022-10-26T17:29:37;20.38;;;7.07;;
69087;SDS011;56190;43.562;5.036;2022-10-26T17:32:04;21.67;;;8.23;;
69087;SDS011;56190;43.562;5.036;2022-10-26T17:34:30;23.73;;;7.68;;
69087;SDS011;56190;43.562;5.036;2022-10-26T17:36:55;24.52;;;7.65;;
69087;SDS011;56190;43.562;5.036;2022-10-26T17:39:21;23.60;;;7.40;;
69087;SDS011;56190;43.562;5.036;2022-10-26T17:41:46;19.40;;;7.35;;
69087;SDS011;56190;43.562;5.036;2022-10-26T17:44:11;26.25;;;7.43;;
69087;SDS011;56190;43.562;5.036;2022-10-26T17:46:36;22.23;;;7.10;;
69087;SDS011;56190;43.562;5.036;2022-10-26T17:49:02;15.75;;;6.20;;
69087;SDS011;56190;43.562;5.036;2022-10-26T17:51:28;21.75;;;6.85;;
69087;SDS011;56190;43.562;5.036;2022-10-26T17:53:54;23.85;;;7.78;;
69087;SDS011;56190;43.562;5.036;2022-10-26T17:58:44;25.35;;;7.88;;
69087;SDS011;56190;43.562;5.036;2022-10-26T18:01:14;18.88;;;6.85;;
69087;SDS011;56190;43.562;5.036;2022-10-26T18:03:39;18.55;;;6.60;;
69087;SDS011;56190;43.562;5.036;2022-10-26T18:06:05;17.40;;;7.07;;
69087;SDS011;56190;43.562;5.036;2022-10-26T18:08:34;18.77;;;6.88;;
69087;SDS011;56190;43.562;5.036;2022-10-26T18:11:00;17.77;;;6.50;;
69087;SDS011;56190;43.562;5.036;2022-10-26T18:13:26;17.77;;;6.47;;
69087;SDS011;56190;43.562;5.036;2022-10-26T18:15:52;19.48;;;7.57;;
69087;SDS011;56190;43.562;5.036;2022-10-26T18:18:17;22.02;;;7.40;;
69087;SDS011;56190;43.562;5.036;2022-10-26T18:20:43;17.73;;;7.38;;
69087;SDS011;56190;43.562;5.036;2022-10-26T18:23:08;20.88;;;6.93;;
69087;SDS011;56190;43.562;5.036;2022-10-26T18:25:33;19.10;;;6.95;;
69087;SDS011;56190;43.562;5.036;2022-10-26T18:28:00;25.42;;;7.45;;
69087;SDS011;56190;43.562;5.036;2022-10-26T18:30:25;24.45;;;7.53;;
69087;SDS011;56190;43.562;5.036;2022-10-26T18:32:50;17.50;;;6.68;;
69087;SDS011;56190;43.562;5.036;2022-10-26T18:35:16;24.58;;;7.28;;
69087;SDS011;56190;43.562;5.036;2022-10-26T18:37:42;17.75;;;6.90;;
69087;SDS011;56190;43.562;5.036;2022-10-26T18:40:07;19.90;;;7.82;;
69087;SDS011;56190;43.562;5.036;2022-10-26T18:42:33;20.38;;;7.63;;
69087;SDS011;56190;43.562;5.036;2022-10-26T18:44:58;20.27;;;7.18;;
69087;SDS011;56190;43.562;5.036;2022-10-26T18:47:29;15.80;;;7.00;;
69087;SDS011;56190;43.562;5.036;2022-10-26T18:49:55;19.60;;;7.35;;
69087;SDS011;56190;43.562;5.036;2022-10-26T18:52:20;19.45;;;7.80;;
69087;SDS011;56190;43.562;5.036;2022-10-26T18:54:48;22.13;;;7.35;;
69087;SDS011;56190;43.562;5.036;2022-10-26T18:57:13;19.52;;;7.22;;
69087;SDS011;56190;43.562;5.036;2022-10-26T18:59:38;16.15;;;7.25;;
69087;SDS011;56190;43.562;5.036;2022-10-26T19:02:03;21.20;;;8.40;;
69087;SDS011;56190;43.562;5.036;2022-10-26T19:04:29;21.27;;;7.47;;
69087;SDS011;56190;43.562;5.036;2022-10-26T19:06:54;21.70;;;8.57;;
69087;SDS011;56190;43.562;5.036;2022-10-26T19:09:19;19.88;;;7.75;;
69087;SDS011;56190;43.562;5.036;2022-10-26T19:11:44;20.50;;;8.10;;
69087;SDS011;56190;43.562;5.036;2022-10-26T19:14:10;16.13;;;7.43;;
69087;SDS011;56190;43.562;5.036;2022-10-26T19:16:36;20.75;;;7.18;;
69087;SDS011;56190;43.562;5.036;2022-10-26T19:19:02;19.40;;;7.47;;
69087;SDS011;56190;43.562;5.036;2022-10-26T19:21:29;19.40;;;7.55;;
69087;SDS011;56190;43.562;5.036;2022-10-26T19:23:55;20.38;;;7.43;;
69087;SDS011;56190;43.562;5.036;2022-10-26T19:26:22;14.13;;;6.75;;
69087;SDS011;56190;43.562;5.036;2022-10-26T19:28:52;17.13;;;7.13;;
69087;SDS011;56190;43.562;5.036;2022-10-26T19:31:19;18.63;;;8.23;;
69087;SDS011;56190;43.562;5.036;2022-10-26T19:33:44;16.98;;;7.25;;
69087;SDS011;56190;43.562;5.036;2022-10-26T19:36:10;22.00;;;8.23;;
69087;SDS011;56190;43.562;5.036;2022-10-26T19:38:35;19.75;;;8.05;;
69087;SDS011;56190;43.562;5.036;2022-10-26T19:41:02;25.17;;;8.60;;
69087;SDS011;56190;43.562;5.036;2022-10-26T19:43:28;23.85;;;8.70;;
69087;SDS011;56190;43.562;5.036;2022-10-26T19:45:55;17.77;;;8.40;;
69087;SDS011;56190;43.562;5.036;2022-10-26T19:48:20;23.90;;;9.00;;
69087;SDS011;56190;43.562;5.036;2022-10-26T19:50:46;19.30;;;8.65;;
69087;SDS011;56190;43.562;5.036;2022-10-26T19:53:11;20.65;;;9.70;;
69087;SDS011;56190;43.562;5.036;2022-10-26T19:55:41;22.38;;;9.25;;
69087;SDS011;56190;43.562;5.036;2022-10-26T19:58:07;26.13;;;8.48;;
69087;SDS011;56190;43.562;5.036;2022-10-26T20:00:32;18.98;;;9.60;;
69087;SDS011;56190;43.562;5.036;2022-10-26T20:03:00;17.83;;;9.88;;
69087;SDS011;56190;43.562;5.036;2022-10-26T20:05:25;21.67;;;9.82;;
69087;SDS011;56190;43.562;5.036;2022-10-26T20:07:50;24.13;;;8.73;;
69087;SDS011;56190;43.562;5.036;2022-10-26T20:10:16;17.50;;;8.32;;
69087;SDS011;56190;43.562;5.036;2022-10-26T20:12:41;20.88;;;8.60;;
69087;SDS011;56190;43.562;5.036;2022-10-26T20:15:06;24.15;;;9.23;;
69087;SDS011;56190;43.562;5.036;2022-10-26T20:17:33;22.23;;;8.52;;
69087;SDS011;56190;43.562;5.036;2022-10-26T20:19:58;18.33;;;7.97;;
69087;SDS011;56190;43.562;5.036;2022-10-26T20:22:23;20.27;;;7.53;;
69087;SDS011;56190;43.562;5.036;2022-10-26T20:24:48;20.88;;;8.35;;
69087;SDS011;56190;43.562;5.036;2022-10-26T20:27:14;20.17;;;8.68;;
69087;SDS011;56190;43.562;5.036;2022-10-26T20:29:39;20.45;;;8.90;;
69087;SDS011;56190;43.562;5.036;2022-10-26T20:32:04;20.95;;;8.38;;
69087;SDS011;56190;43.562;5.036;2022-10-26T20:34:30;16.85;;;7.82;;
69087;SDS011;56190;43.562;5.036;2022-10-26T20:36:55;17.48;;;8.45;;
69087;SDS011;56190;43.562;5.036;2022-10-26T20:39:20;20.40;;;8.85;;
69087;SDS011;56190;43.562;5.036;2022-10-26T20:41:46;18.38;;;7.35;;
69087;SDS011;56190;43.562;5.036;2022-10-26T20:44:19;18.48;;;7.70;;
69087;SDS011;56190;43.562;5.036;2022-10-26T20:46:46;20.35;;;8.48;;
69087;SDS011;56190;43.562;5.036;2022-10-26T20:49:11;17.70;;;8.27;;
69087;SDS011;56190;43.562;5.036;2022-10-26T20:56:33;18.88;;;7.35;;
69087;SDS011;56190;43.562;5.036;2022-10-26T20:58:59;19.55;;;8.30;;
69087;SDS011;56190;43.562;5.036;2022-10-26T21:01:28;16.50;;;7.90;;
69087;SDS011;56190;43.562;5.036;2022-10-26T21:03:54;14.65;;;7.43;;
69087;SDS011;56190;43.562;5.036;2022-10-26T21:06:20;16.27;;;7.90;;
69087;SDS011;56190;43.562;5.036;2022-10-26T21:08:49;22.42;;;8.05;;
69087;SDS011;56190;43.562;5.036;2022-10-26T21:11:15;19.95;;;7.57;;
69087;SDS011;56190;43.562;5.036;2022-10-26T21:13:41;24.67;;;8.65;;
69087;SDS011;56190;43.562;5.036;2022-10-26T21:16:06;15.02;;;7.18;;
69087;SDS011;56190;43.562;5.036;2022-10-26T21:18:32;21.65;;;7.63;;
69087;SDS011;56190;43.562;5.036;2022-10-26T21:20:58;18.83;;;7.65;;
69087;SDS011;56190;43.562;5.036;2022-10-26T21:23:27;19.17;;;7.68;;
69087;SDS011;56190;43.562;5.036;2022-10-26T21:25:55;13.40;;;7.13;;
69087;SDS011;56190;43.562;5.036;2022-10-26T21:28:21;14.45;;;7.68;;
69087;SDS011;56190;43.562;5.036;2022-10-26T21:30:46;20.55;;;7.43;;
69087;SDS011;56190;43.562;5.036;2022-10-26T21:33:11;17.02;;;8.05;;
69087;SDS011;56190;43.562;5.036;2022-10-26T21:35:36;15.07;;;7.18;;
69087;SDS011;56190;43.562;5.036;2022-10-26T21:38:02;16.85;;;6.78;;
69087;SDS011;56190;43.562;5.036;2022-10-26T21:40:27;19.08;;;7.47;;
69087;SDS011;56190;43.562;5.036;2022-10-26T21:42:52;15.35;;;7.60;;
69087;SDS011;56190;43.562;5.036;2022-10-26T21:45:17;21.13;;;8.45;;
69087;SDS011;56190;43.562;5.036;2022-10-26T21:47:43;14.73;;;7.30;;
69087;SDS011;56190;43.562;5.036;2022-10-26T21:50:09;19.70;;;7.97;;
69087;SDS011;56190;43.562;5.036;2022-10-26T21:52:34;17.85;;;7.82;;
69087;SDS011;56190;43.562;5.036;2022-10-26T21:54:59;19.95;;;7.43;;
69087;SDS011;56190;43.562;5.036;2022-10-26T21:57:24;16.55;;;7.68;;
69087;SDS011;56190;43.562;5.036;2022-10-26T21:59:50;17.73;;;7.78;;
69087;SDS011;56190;43.562;5.036;2022-10-26T22:02:16;17.80;;;6.85;;
69087;SDS011;56190;43.562;5.036;2022-10-26T22:04:41;20.92;;;7.80;;
69087;SDS011;56190;43.562;5.036;2022-10-26T22:07:06;15.73;;;8.02;;
69087;SDS011;56190;43.562;5.036;2022-10-26T22:09:31;12.85;;;6.70;;
69087;SDS011;56190;43.562;5.036;2022-10-26T22:11:57;20.05;;;7.40;;
69087;SDS011;56190;43.562;5.036;2022-10-26T22:14:22;14.90;;;7.75;;
69087;SDS011;56190;43.562;5.036;2022-10-26T22:16:47;14.27;;;6.90;;
69087;SDS011;56190;43.562;5.036;2022-10-26T22:19:12;13.68;;;6.82;;
69087;SDS011;56190;43.562;5.036;2022-10-26T22:21:38;18.83;;;7.22;;
69087;SDS011;56190;43.562;5.036;2022-10-26T22:24:04;16.42;;;7.03;;
69087;SDS011;56190;43.562;5.036;2022-10-26T22:26:31;14.43;;;7.10;;
69087;SDS011;56190;43.562;5.036;2022-10-26T22:28:56;13.98;;;7.18;;
69087;SDS011;56190;43.562;5.036;2022-10-26T22:31:23;13.07;;;6.57;;
69087;SDS011;56190;43.562;5.036;2022-10-26T22:33:52;20.02;;;8.85;;
69087;SDS011;56190;43.562;5.036;2022-10-26T22:36:17;16.00;;;6.93;;
69087;SDS011;56190;43.562;5.036;2022-10-26T22:38:42;19.35;;;7.57;;
69087;SDS011;56190;43.562;5.036;2022-10-26T22:41:08;16.10;;;7.03;;
69087;SDS011;56190;43.562;5.036;2022-10-26T22:43:34;16.98;;;7.60;;
69087;SDS011;56190;43.562;5.036;2022-10-26T22:45:59;20.02;;;7.68;;
69087;SDS011;56190;43.562;5.036;2022-10-26T22:48:25;14.48;;;7.68;;
69087;SDS011;56190;43.562;5.036;2022-10-26T22:50:50;11.07;;;6.32;;
69087;SDS011;56190;43.562;5.036;2022-10-26T22:53:16;17.85;;;7.88;;
69087;SDS011;56190;43.562;5.036;2022-10-26T22:55:41;18.65;;;7.82;;
69087;SDS011;56190;43.562;5.036;2022-10-26T22:58:06;19.48;;;8.07;;
69087;SDS011;56190;43.562;5.036;2022-10-26T23:00:31;20.40;;;7.68;;
69087;SDS011;56190;43.562;5.036;2022-10-26T23:02:57;19.55;;;7.88;;
69087;SDS011;56190;43.562;5.036;2022-10-26T23:05:22;19.63;;;8.05;;
69087;SDS011;56190;43.562;5.036;2022-10-26T23:07:47;17.60;;;7.45;;
69087;SDS011;56190;43.562;5.036;2022-10-26T23:10:13;15.93;;;7.68;;
69087;SDS011;56190;43.562;5.036;2022-10-26T23:12:38;15.23;;;6.97;;
69087;SDS011;56190;43.562;5.036;2022-10-26T23:15:03;16.90;;;7.65;;
69087;SDS011;56190;43.562;5.036;2022-10-26T23:17:28;16.83;;;7.40;;
69087;SDS011;56190;43.562;5.036;2022-10-26T23:19:54;15.38;;;7.28;;
69087;SDS011;56190;43.562;5.036;2022-10-26T23:22:19;17.80;;;7.97;;
69087;SDS011;56190;43.562;5.036;2022-10-26T23:24:44;11.63;;;6.70;;
69087;SDS011;56190;43.562;5.036;2022-10-26T23:27:09;20.02;;;7.78;;
69087;SDS011;56190;43.562;5.036;2022-10-26T23:29:35;16.23;;;7.15;;
69087;SDS011;56190;43.562;5.036;2022-10-26T23:32:00;22.50;;;8.05;;
69087;SDS011;56190;43.562;5.036;2022-10-26T23:34:25;13.10;;;7.95;;
69087;SDS011;56190;43.562;5.036;2022-10-26T23:36:50;15.35;;;7.10;;
69087;SDS011;56190;43.562;5.036;2022-10-26T23:39:17;15.70;;;7.80;;
69087;SDS011;56190;43.562;5.036;2022-10-26T23:41:42;17.83;;;7.32;;
69087;SDS011;56190;43.562;5.036;2022-10-26T23:44:07;22.25;;;8.13;;
69087;SDS011;56190;43.562;5.036;2022-10-26T23:46:33;16.05;;;7.32;;
69087;SDS011;56190;43.562;5.036;2022-10-26T23:48:58;15.05;;;6.78;;
69087;SDS011;56190;43.562;5.036;2022-10-26T23:51:23;20.65;;;8.23;;
69087;SDS011;56190;43.562;5.036;2022-10-26T23:53:48;15.52;;;8.35;;
69087;SDS011;56190;43.562;5.036;2022-10-26T23:56:14;14.55;;;7.43;;
69087;SDS011;56190;43.562;5.036;2022-10-26T23:58:39;16.40;;;7.47;;
